createdAt,value
2018-10-16T00:00:50.524Z,11.90
2018-10-16T00:01:51.911Z,11.84
2018-10-16T00:02:53.308Z,11.85
2018-10-16T00:03:54.687Z,11.85
2018-10-16T00:04:56.068Z,11.88
2018-10-16T00:05:57.451Z,11.84
2018-10-16T00:06:58.843Z,11.79
2018-10-16T00:08:00.235Z,11.81
2018-10-16T00:09:01.601Z,11.77
2018-10-16T00:10:02.998Z,11.77
2018-10-16T00:11:04.364Z,11.77
2018-10-16T00:12:05.765Z,11.77
2018-10-16T00:13:07.139Z,11.74
2018-10-16T00:14:08.498Z,11.66
2018-10-16T00:15:09.871Z,11.77
2018-10-16T00:16:11.256Z,11.70
2018-10-16T00:17:12.628Z,11.75
2018-10-16T00:18:14.012Z,11.74
2018-10-16T00:19:15.394Z,11.64
2018-10-16T00:20:16.780Z,11.67
2018-10-16T00:21:18.158Z,11.66
2018-10-16T00:22:19.534Z,11.67
2018-10-16T00:23:20.922Z,11.75
2018-10-16T00:24:22.302Z,11.63
2018-10-16T00:25:23.682Z,11.63
2018-10-16T00:26:25.066Z,11.49
2018-10-16T00:27:26.453Z,11.60
2018-10-16T00:28:27.829Z,11.56
2018-10-16T00:29:29.209Z,11.70
2018-10-16T00:30:30.591Z,11.53
2018-10-16T00:31:31.959Z,11.51
2018-10-16T00:32:33.363Z,11.54
2018-10-16T00:33:34.733Z,11.63
2018-10-16T00:34:36.106Z,11.56
2018-10-16T00:35:37.489Z,11.59
2018-10-16T00:36:38.875Z,11.59
2018-10-16T00:37:40.251Z,11.57
2018-10-16T00:38:41.638Z,11.56
2018-10-16T00:39:43.015Z,11.62
2018-10-16T00:40:44.395Z,11.53
2018-10-16T00:41:45.772Z,11.49
2018-10-16T00:42:47.157Z,11.51
2018-10-16T00:43:48.536Z,11.45
2018-10-16T00:44:49.922Z,11.46
2018-10-16T00:45:51.298Z,11.49
2018-10-16T00:46:52.683Z,11.44
2018-10-16T00:47:54.064Z,11.44
2018-10-16T00:48:55.452Z,11.42
2018-10-16T00:49:56.840Z,11.44
2018-10-16T00:50:58.210Z,11.46
2018-10-16T00:51:59.588Z,11.39
2018-10-16T00:53:00.967Z,11.39
2018-10-16T00:54:02.350Z,11.39
2018-10-16T00:55:03.778Z,11.28
2018-10-16T00:56:05.119Z,11.24
2018-10-16T00:57:06.496Z,11.30
2018-10-16T00:58:07.882Z,11.30
2018-10-16T00:59:09.259Z,11.30
2018-10-16T01:00:10.639Z,11.31
2018-10-16T01:01:12.021Z,11.31
2018-10-16T01:02:13.419Z,11.36
2018-10-16T01:03:14.795Z,11.38
2018-10-16T01:04:16.179Z,11.26
2018-10-16T01:05:17.561Z,11.28
2018-10-16T01:06:18.939Z,11.35
2018-10-16T01:07:20.306Z,11.30
2018-10-16T01:08:21.697Z,11.27
2018-10-16T01:09:23.066Z,11.30
2018-10-16T01:10:24.450Z,11.31
2018-10-16T01:11:25.834Z,11.31
2018-10-16T01:12:27.209Z,11.35
2018-10-16T01:13:28.589Z,11.26
2018-10-16T01:14:29.974Z,11.27
2018-10-16T01:15:31.360Z,11.20
2018-10-16T01:16:32.734Z,11.11
2018-10-16T01:17:34.122Z,11.20
2018-10-16T01:18:35.513Z,11.20
2018-10-16T01:19:36.893Z,11.23
2018-10-16T01:20:38.267Z,11.17
2018-10-16T01:21:39.647Z,11.06
2018-10-16T01:22:41.028Z,11.05
2018-10-16T01:23:42.406Z,11.16
2018-10-16T01:24:43.796Z,11.23
2018-10-16T01:25:45.171Z,11.12
2018-10-16T01:26:46.543Z,11.16
2018-10-16T01:27:47.926Z,11.16
2018-10-16T01:28:49.307Z,11.06
2018-10-16T01:29:50.689Z,11.12
2018-10-16T01:30:52.074Z,11.06
2018-10-16T01:31:53.450Z,11.03
2018-10-16T01:32:54.829Z,11.16
2018-10-16T01:33:56.209Z,11.08
2018-10-16T01:34:57.583Z,11.05
2018-10-16T01:35:58.966Z,11.09
2018-10-16T01:37:00.351Z,11.12
2018-10-16T01:38:01.745Z,11.08
2018-10-16T01:39:03.121Z,11.16
2018-10-16T01:40:04.492Z,11.23
2018-10-16T01:41:05.877Z,11.13
2018-10-16T01:42:07.260Z,11.12
2018-10-16T01:43:08.642Z,11.06
2018-10-16T01:44:10.022Z,11.13
2018-10-16T01:45:11.398Z,11.03
2018-10-16T01:46:12.778Z,11.16
2018-10-16T01:47:14.152Z,11.13
2018-10-16T01:48:15.535Z,11.13
2018-10-16T01:49:16.918Z,11.09
2018-10-16T01:50:18.299Z,11.05
2018-10-16T01:51:19.682Z,10.98
2018-10-16T01:52:21.067Z,10.98
2018-10-16T01:53:22.441Z,11.05
2018-10-16T01:54:23.834Z,11.02
2018-10-16T01:55:25.218Z,11.01
2018-10-16T01:56:26.604Z,10.98
2018-10-16T01:57:27.979Z,11.05
2018-10-16T01:58:29.353Z,10.98
2018-10-16T01:59:30.727Z,10.99
2018-10-16T02:00:32.106Z,11.02
2018-10-16T02:01:33.491Z,10.99
2018-10-16T02:02:34.908Z,10.99
2018-10-16T02:03:36.254Z,10.95
2018-10-16T02:04:37.636Z,10.88
2018-10-16T02:05:39.015Z,10.91
2018-10-16T02:06:40.400Z,10.80
2018-10-16T02:07:41.772Z,10.90
2018-10-16T02:08:43.148Z,10.81
2018-10-16T02:09:44.536Z,10.76
2018-10-16T02:10:45.906Z,10.76
2018-10-16T02:11:47.288Z,10.78
2018-10-16T02:12:48.667Z,10.76
2018-10-16T02:13:50.058Z,10.70
2018-10-16T02:14:51.488Z,10.72
2018-10-16T02:15:52.769Z,10.63
2018-10-16T02:16:54.149Z,10.69
2018-10-16T02:17:55.533Z,10.68
2018-10-16T02:18:56.918Z,10.68
2018-10-16T02:19:58.303Z,10.58
2018-10-16T02:20:59.673Z,10.65
2018-10-16T02:22:01.057Z,10.49
2018-10-16T02:23:02.429Z,10.55
2018-10-16T02:24:03.811Z,10.46
2018-10-16T02:25:05.183Z,10.46
2018-10-16T02:26:06.568Z,10.51
2018-10-16T02:27:07.946Z,10.55
2018-10-16T02:28:09.324Z,10.46
2018-10-16T02:29:10.711Z,10.46
2018-10-16T02:30:12.086Z,10.49
2018-10-16T02:31:13.463Z,10.43
2018-10-16T02:32:14.835Z,10.39
2018-10-16T02:33:16.227Z,10.36
2018-10-16T02:34:17.611Z,10.29
2018-10-16T02:35:19.000Z,10.34
2018-10-16T02:36:20.369Z,10.31
2018-10-16T02:37:21.753Z,10.28
2018-10-16T02:38:23.126Z,10.22
2018-10-16T02:39:24.510Z,10.18
2018-10-16T02:40:25.885Z,10.10
2018-10-16T02:41:27.280Z,10.11
2018-10-16T02:42:28.652Z,10.10
2018-10-16T02:43:30.038Z,10.10
2018-10-16T02:44:31.425Z,10.04
2018-10-16T02:45:32.807Z,10.02
2018-10-16T02:46:34.179Z,10.01
2018-10-16T02:47:35.569Z,9.96
2018-10-16T02:48:36.952Z,9.91
2018-10-16T02:49:38.321Z,9.99
2018-10-16T02:50:39.698Z,9.96
2018-10-16T02:51:41.081Z,10.01
2018-10-16T02:52:42.464Z,9.99
2018-10-16T02:53:43.841Z,10.04
2018-10-16T02:54:45.216Z,10.01
2018-10-16T02:55:46.603Z,10.04
2018-10-16T02:56:47.976Z,10.04
2018-10-16T02:57:49.351Z,10.02
2018-10-16T02:58:50.734Z,10.01
2018-10-16T02:59:52.117Z,9.95
2018-10-16T03:00:53.502Z,9.96
2018-10-16T03:01:54.876Z,10.04
2018-10-16T03:02:57.246Z,9.96
2018-10-16T03:03:58.634Z,9.96
2018-10-16T03:04:59.996Z,9.88
2018-10-16T03:06:01.386Z,10.01
2018-10-16T03:07:02.764Z,10.06
2018-10-16T03:08:04.157Z,9.88
2018-10-16T03:09:05.534Z,10.09
2018-10-16T03:10:06.915Z,10.01
2018-10-16T03:11:08.296Z,10.02
2018-10-16T03:12:09.669Z,10.02
2018-10-16T03:13:11.077Z,9.99
2018-10-16T03:14:12.452Z,10.01
2018-10-16T03:15:13.834Z,10.02
2018-10-16T03:16:15.212Z,9.96
2018-10-16T03:17:16.608Z,10.06
2018-10-16T03:18:17.984Z,9.99
2018-10-16T03:19:19.361Z,9.98
2018-10-16T03:20:20.792Z,10.04
2018-10-16T03:21:22.123Z,9.86
2018-10-16T03:22:23.497Z,9.98
2018-10-16T03:23:24.877Z,10.02
2018-10-16T03:24:26.256Z,9.95
2018-10-16T03:25:27.632Z,10.02
2018-10-16T03:26:29.022Z,10.07
2018-10-16T03:27:30.393Z,9.98
2018-10-16T03:28:31.777Z,9.99
2018-10-16T03:29:33.154Z,9.93
2018-10-16T03:30:34.535Z,10.04
2018-10-16T03:31:35.918Z,10.04
2018-10-16T03:32:37.296Z,10.07
2018-10-16T03:33:38.674Z,10.09
2018-10-16T03:34:40.044Z,10.06
2018-10-16T03:35:41.435Z,10.01
2018-10-16T03:36:42.818Z,10.04
2018-10-16T03:37:44.191Z,10.06
2018-10-16T03:38:45.579Z,10.01
2018-10-16T03:39:46.956Z,10.04
2018-10-16T03:40:48.339Z,10.04
2018-10-16T03:41:49.708Z,10.01
2018-10-16T03:42:51.094Z,9.95
2018-10-16T03:43:52.495Z,10.06
2018-10-16T03:44:53.885Z,9.96
2018-10-16T03:45:55.242Z,10.09
2018-10-16T03:46:56.619Z,9.99
2018-10-16T03:47:58.007Z,9.95
2018-10-16T03:48:59.376Z,10.01
2018-10-16T03:50:00.754Z,10.01
2018-10-16T03:51:02.129Z,9.98
2018-10-16T03:52:03.521Z,9.95
2018-10-16T03:53:04.910Z,9.93
2018-10-16T03:54:06.309Z,9.95
2018-10-16T03:55:07.676Z,10.02
2018-10-16T03:56:09.054Z,9.81
2018-10-16T03:57:10.445Z,9.71
2018-10-16T03:58:11.805Z,9.70
2018-10-16T03:59:14.145Z,9.56
2018-10-16T04:00:15.539Z,9.65
2018-10-16T04:01:16.924Z,9.58
2018-10-16T04:02:18.325Z,9.50
2018-10-16T04:03:19.708Z,9.53
2018-10-16T04:04:21.104Z,9.49
2018-10-16T04:05:22.469Z,9.52
2018-10-16T04:06:23.840Z,9.48
2018-10-16T04:07:25.226Z,9.40
2018-10-16T04:08:26.610Z,9.44
2018-10-16T04:09:28.000Z,9.38
2018-10-16T04:10:29.379Z,9.38
2018-10-16T04:11:30.762Z,9.42
2018-10-16T04:12:32.141Z,9.45
2018-10-16T04:13:33.522Z,9.44
2018-10-16T04:14:34.890Z,9.40
2018-10-16T04:15:36.272Z,9.34
2018-10-16T04:16:37.651Z,9.32
2018-10-16T04:17:39.025Z,9.34
2018-10-16T04:18:40.408Z,9.22
2018-10-16T04:19:41.794Z,9.30
2018-10-16T04:20:43.164Z,9.32
2018-10-16T04:21:44.554Z,9.31
2018-10-16T04:22:46.863Z,9.27
2018-10-16T04:23:47.250Z,9.24
2018-10-16T04:24:48.627Z,9.27
2018-10-16T04:25:50.003Z,9.31
2018-10-16T04:26:51.383Z,9.40
2018-10-16T04:27:52.763Z,9.44
2018-10-16T04:28:54.146Z,9.38
2018-10-16T04:29:55.520Z,9.42
2018-10-16T04:30:56.903Z,9.49
2018-10-16T04:31:58.288Z,9.45
2018-10-16T04:32:59.666Z,9.49
2018-10-16T04:34:01.041Z,9.41
2018-10-16T04:35:02.422Z,9.50
2018-10-16T04:36:03.797Z,9.42
2018-10-16T04:37:05.175Z,9.49
2018-10-16T04:38:06.557Z,9.48
2018-10-16T04:39:07.928Z,9.45
2018-10-16T04:40:09.302Z,9.55
2018-10-16T04:41:10.679Z,9.45
2018-10-16T04:42:12.061Z,9.41
2018-10-16T04:43:13.436Z,9.44
2018-10-16T04:44:14.816Z,9.40
2018-10-16T04:45:16.198Z,9.42
2018-10-16T04:46:17.574Z,9.41
2018-10-16T04:47:18.946Z,9.44
2018-10-16T04:48:20.326Z,9.53
2018-10-16T04:49:21.703Z,9.56
2018-10-16T04:50:23.083Z,9.55
2018-10-16T04:51:24.465Z,9.49
2018-10-16T04:52:25.843Z,9.53
2018-10-16T04:53:27.225Z,9.53
2018-10-16T04:54:28.597Z,9.50
2018-10-16T04:55:29.975Z,9.53
2018-10-16T04:56:31.361Z,9.44
2018-10-16T04:57:32.745Z,9.45
2018-10-16T04:58:34.125Z,9.40
2018-10-16T04:59:35.497Z,9.38
2018-10-16T05:00:36.884Z,9.42
2018-10-16T05:01:38.253Z,9.41
2018-10-16T05:02:39.632Z,9.27
2018-10-16T05:03:41.009Z,9.37
2018-10-16T05:04:42.389Z,9.34
2018-10-16T05:05:43.762Z,9.32
2018-10-16T05:06:45.144Z,9.30
2018-10-16T05:07:46.524Z,9.32
2018-10-16T05:08:47.901Z,9.20
2018-10-16T05:09:49.271Z,9.27
2018-10-16T05:10:50.652Z,9.30
2018-10-16T05:11:52.547Z,9.27
2018-10-16T05:12:53.937Z,9.17
2018-10-16T05:13:55.475Z,9.24
2018-10-16T05:14:56.861Z,9.24
2018-10-16T05:15:58.234Z,9.26
2018-10-16T05:16:59.618Z,9.15
2018-10-16T05:18:01.001Z,9.10
2018-10-16T05:19:02.460Z,9.10
2018-10-16T05:20:03.773Z,9.17
2018-10-16T05:21:05.143Z,9.17
2018-10-16T05:22:06.527Z,9.15
2018-10-16T05:23:07.905Z,9.23
2018-10-16T05:24:09.279Z,9.30
2018-10-16T05:25:10.666Z,9.19
2018-10-16T05:26:12.051Z,9.24
2018-10-16T05:27:13.430Z,9.22
2018-10-16T05:28:14.807Z,9.19
2018-10-16T05:29:16.189Z,9.16
2018-10-16T05:30:17.572Z,9.17
2018-10-16T05:31:19.095Z,9.15
2018-10-16T05:32:20.329Z,9.10
2018-10-16T05:33:21.703Z,9.03
2018-10-16T05:34:23.086Z,9.06
2018-10-16T05:35:24.456Z,9.03
2018-10-16T05:36:25.832Z,9.04
2018-10-16T05:37:27.202Z,9.06
2018-10-16T05:38:28.607Z,8.98
2018-10-16T05:39:29.982Z,9.00
2018-10-16T05:40:31.388Z,8.98
2018-10-16T05:41:33.590Z,9.15
2018-10-16T05:42:34.985Z,9.13
2018-10-16T05:43:36.367Z,9.15
2018-10-16T05:44:37.746Z,9.24
2018-10-16T05:45:39.124Z,9.23
2018-10-16T05:46:40.509Z,9.26
2018-10-16T05:47:41.890Z,9.24
2018-10-16T05:48:43.267Z,9.27
2018-10-16T18:18:59.267Z,15.28
2018-10-16T18:20:02.150Z,15.31
2018-10-16T18:21:06.973Z,15.16
2018-10-16T18:22:08.835Z,15.23
2018-10-16T18:23:13.285Z,15.20
2018-10-16T18:24:14.727Z,15.25
2018-10-16T18:25:18.655Z,15.18
2018-10-16T18:26:21.599Z,15.20
2018-10-16T18:27:24.793Z,15.18
2018-10-16T18:28:26.983Z,15.18
2018-10-16T18:29:29.085Z,15.15
2018-10-16T18:30:30.628Z,15.19
2018-10-16T18:31:33.577Z,15.04
2018-10-16T18:32:34.946Z,15.16
2018-10-16T18:33:37.087Z,15.16
2018-10-16T18:34:40.175Z,15.11
2018-10-16T18:35:43.710Z,15.05
2018-10-16T18:36:48.168Z,15.11
2018-10-16T18:37:51.193Z,15.15
2018-10-16T18:38:55.239Z,15.03
2018-10-16T18:39:57.676Z,15.04
2018-10-16T18:41:00.419Z,14.98
2018-10-16T18:42:02.670Z,14.91
2018-10-16T18:43:07.099Z,14.98
2018-10-16T18:44:08.571Z,14.98
2018-10-16T18:45:10.725Z,14.93
2018-10-16T18:46:12.784Z,14.86
2018-10-16T18:47:15.058Z,14.83
2018-10-16T18:48:17.954Z,14.91
2018-10-16T18:49:21.742Z,14.80
2018-10-16T18:50:25.418Z,14.83
2018-10-16T18:51:28.463Z,14.79
2018-10-16T18:52:30.660Z,14.79
2018-10-16T18:53:34.793Z,14.87
2018-10-16T18:54:36.200Z,14.82
2018-10-16T18:55:39.462Z,14.79
2018-10-16T18:56:41.556Z,14.82
2018-10-16T18:57:43.015Z,14.78
2018-10-16T18:58:44.447Z,14.80
2018-10-16T18:59:47.018Z,14.74
2018-10-16T19:00:48.432Z,14.72
2018-10-16T19:01:50.589Z,14.69
2018-10-16T19:02:51.253Z,14.67
2018-10-16T19:03:53.282Z,14.66
2018-10-16T19:04:56.301Z,14.61
2018-10-16T19:05:57.695Z,14.61
2018-10-16T19:06:59.939Z,14.63
2018-10-16T19:08:02.287Z,14.53
2018-10-16T19:09:04.683Z,14.54
2018-10-16T19:10:06.091Z,14.48
2018-10-16T19:11:07.482Z,14.60
2018-10-16T19:12:09.549Z,14.46
2018-10-16T19:13:11.069Z,14.49
2018-10-16T19:14:13.928Z,14.59
2018-10-16T19:15:17.141Z,14.49
2018-10-16T19:16:17.620Z,14.41
2018-10-16T19:17:19.714Z,14.46
2018-10-16T19:18:22.562Z,14.41
2018-10-16T19:19:26.592Z,14.44
2018-10-16T19:20:28.177Z,14.45
2018-10-16T19:21:31.030Z,14.46
2018-10-16T19:22:32.447Z,14.38
2018-10-16T19:23:34.437Z,14.39
2018-10-16T19:24:37.909Z,14.36
2018-10-16T19:25:40.675Z,14.34
2018-10-16T19:26:42.600Z,14.30
2018-10-16T19:27:43.578Z,14.29
2018-10-16T19:28:44.908Z,14.27
2018-10-16T19:29:47.046Z,14.30
2018-10-16T19:30:49.888Z,14.31
2018-10-16T19:31:52.141Z,14.26
2018-10-16T19:32:54.561Z,14.35
2018-10-16T19:33:58.331Z,14.38
2018-10-16T19:35:01.367Z,14.36
2018-10-16T19:36:03.309Z,14.31
2018-10-16T19:37:05.560Z,14.26
2018-10-16T19:38:06.976Z,14.27
2018-10-16T19:39:08.602Z,14.24
2018-10-16T19:40:10.853Z,14.13
2018-10-16T19:41:12.310Z,14.06
2018-10-16T19:42:15.250Z,14.17
2018-10-16T19:43:16.714Z,14.11
2018-10-16T19:44:18.134Z,14.09
2018-10-16T19:45:20.555Z,14.13
2018-10-16T19:46:22.368Z,14.02
2018-10-16T19:47:23.766Z,14.06
2018-10-16T19:48:25.994Z,13.98
2018-10-16T19:49:27.393Z,14.08
2018-10-16T19:50:28.829Z,14.02
2018-10-16T19:51:30.254Z,13.96
2018-10-16T19:52:31.699Z,13.94
2018-10-16T19:53:33.116Z,13.98
2018-10-16T19:54:34.561Z,13.94
2018-10-16T19:55:36.924Z,13.91
2018-10-16T19:56:38.289Z,13.86
2018-10-16T19:57:39.686Z,13.83
2018-10-16T19:58:42.057Z,13.84
2018-10-16T19:59:44.324Z,13.81
2018-10-16T20:00:45.653Z,13.75
2018-10-16T20:01:47.819Z,13.79
2018-10-16T20:02:49.462Z,13.81
2018-10-16T20:03:52.107Z,13.80
2018-10-16T20:04:54.199Z,13.80
2018-10-16T20:05:56.593Z,13.72
2018-10-16T20:06:57.979Z,13.65
2018-10-16T20:07:59.495Z,13.65
2018-10-16T20:09:01.045Z,13.66
2018-10-16T20:10:02.389Z,13.57
2018-10-16T20:11:03.807Z,13.63
2018-10-16T20:12:05.205Z,13.51
2018-10-16T20:13:06.619Z,13.54
2018-10-16T20:14:09.747Z,13.51
2018-10-16T20:15:11.167Z,13.51
2018-10-16T20:16:12.535Z,13.50
2018-10-16T20:17:15.608Z,13.36
2018-10-16T20:18:16.249Z,13.43
2018-10-16T20:19:17.664Z,13.38
2018-10-16T20:20:19.071Z,13.43
2018-10-16T20:21:20.434Z,13.39
2018-10-16T20:22:21.870Z,13.51
2018-10-16T20:23:23.251Z,13.44
2018-10-16T20:24:24.645Z,13.38
2018-10-16T20:25:26.113Z,13.35
2018-10-16T20:26:27.459Z,13.35
2018-10-16T20:27:28.850Z,13.32
2018-10-16T20:28:30.251Z,13.35
2018-10-16T20:29:31.646Z,13.35
2018-10-16T20:30:33.065Z,13.32
2018-10-16T20:31:34.461Z,13.35
2018-10-16T20:32:35.854Z,13.29
2018-10-16T20:33:37.241Z,13.29
2018-10-16T20:34:40.261Z,13.32
2018-10-16T20:35:41.638Z,13.32
2018-10-16T20:36:43.019Z,13.22
2018-10-16T20:37:45.096Z,13.29
2018-10-16T20:38:46.481Z,13.25
2018-10-16T20:39:47.861Z,13.19
2018-10-16T20:40:49.250Z,13.22
2018-10-16T20:41:50.692Z,13.13
2018-10-16T20:42:52.060Z,13.22
2018-10-16T20:43:53.387Z,13.14
2018-10-16T20:44:54.761Z,13.17
2018-10-16T20:45:56.162Z,13.16
2018-10-16T20:46:58.327Z,13.10
2018-10-16T20:47:59.654Z,13.06
2018-10-16T20:49:01.103Z,13.06
2018-10-16T20:50:02.438Z,13.04
2018-10-16T20:51:03.821Z,13.04
2018-10-16T20:52:05.206Z,13.03
2018-10-16T20:53:06.586Z,13.07
2018-10-16T20:54:07.972Z,12.96
2018-10-16T20:55:09.379Z,12.99
2018-10-16T20:56:10.710Z,12.92
2018-10-16T20:57:12.099Z,12.92
2018-10-16T20:58:13.485Z,12.89
2018-10-16T20:59:14.878Z,12.89
2018-10-16T21:00:16.266Z,12.87
2018-10-16T21:01:17.676Z,12.96
2018-10-16T21:02:19.076Z,12.89
2018-10-16T21:03:20.462Z,12.84
2018-10-16T21:04:21.848Z,12.81
2018-10-16T21:05:23.287Z,12.74
2018-10-16T21:06:24.767Z,12.80
2018-10-16T21:07:25.997Z,12.84
2018-10-16T21:08:27.348Z,12.71
2018-10-16T21:09:28.734Z,12.79
2018-10-16T21:10:30.124Z,12.81
2018-10-16T21:11:31.506Z,12.79
2018-10-16T21:12:32.890Z,12.71
2018-10-16T21:13:34.273Z,12.71
2018-10-16T21:14:35.683Z,12.71
2018-10-16T21:15:37.048Z,12.70
2018-10-16T21:16:38.437Z,12.67
2018-10-16T21:17:39.879Z,12.61
2018-10-16T21:18:41.255Z,12.63
2018-10-16T21:19:42.639Z,12.63
2018-10-16T21:20:44.034Z,12.59
2018-10-16T21:21:45.416Z,12.58
2018-10-16T21:22:46.809Z,12.61
2018-10-16T21:23:48.185Z,12.62
2018-10-16T21:24:49.598Z,12.56
2018-10-16T21:25:50.980Z,12.56
2018-10-16T21:26:52.372Z,12.56
2018-10-16T21:27:53.740Z,12.56
2018-10-16T21:28:55.143Z,12.51
2018-10-16T21:29:56.495Z,12.44
2018-10-16T21:30:57.895Z,12.46
2018-10-16T21:32:00.059Z,12.41
2018-10-16T21:33:01.443Z,12.48
2018-10-16T21:34:02.828Z,12.48
2018-10-16T21:35:04.236Z,12.41
2018-10-16T21:36:05.603Z,12.41
2018-10-16T21:37:07.033Z,12.40
2018-10-16T21:38:08.382Z,12.37
2018-10-16T21:39:09.768Z,12.34
2018-10-16T21:40:11.151Z,12.33
2018-10-16T21:41:12.545Z,12.34
2018-10-16T21:42:13.915Z,12.36
2018-10-16T21:43:15.321Z,12.36
2018-10-16T21:44:16.648Z,12.36
2018-10-16T21:45:18.689Z,12.31
2018-10-16T21:46:19.978Z,12.29
2018-10-16T21:47:21.367Z,12.33
2018-10-16T21:48:22.835Z,12.26
2018-10-16T21:49:24.213Z,12.37
2018-10-16T21:50:25.589Z,12.29
2018-10-16T21:51:27.075Z,12.19
2018-10-16T21:52:28.451Z,12.22
2018-10-16T21:53:29.842Z,12.22
2018-10-16T21:54:31.319Z,12.26
2018-10-16T21:55:32.698Z,12.30
2018-10-16T21:56:34.076Z,12.30
2018-10-16T21:57:35.548Z,12.29
2018-10-16T21:58:36.929Z,12.23
2018-10-16T21:59:38.399Z,12.29
2018-10-16T22:00:39.828Z,12.25
2018-10-16T22:01:41.210Z,12.23
2018-10-16T22:02:42.595Z,12.15
2018-10-16T22:03:44.045Z,12.16
2018-10-16T22:04:45.429Z,12.18
2018-10-16T22:05:46.812Z,12.12
2018-10-16T22:06:48.194Z,12.15
2018-10-16T22:07:49.570Z,11.98
2018-10-16T22:08:50.964Z,12.03
2018-10-16T22:09:52.347Z,11.97
2018-10-16T22:10:54.850Z,11.97
2018-10-16T22:11:56.204Z,11.93
2018-10-16T22:12:57.603Z,12.01
2018-10-16T22:13:58.957Z,11.93
2018-10-16T22:15:00.355Z,12.00
2018-10-16T22:16:01.728Z,12.01
2018-10-16T22:17:03.168Z,11.96
2018-10-16T22:18:04.531Z,11.88
2018-10-16T22:19:05.962Z,11.93
2018-10-16T22:20:07.376Z,11.84
2018-10-16T22:21:08.803Z,11.88
2018-10-16T22:22:10.179Z,11.84
2018-10-16T22:23:11.773Z,11.82
2018-10-16T22:24:13.057Z,11.84
2018-10-16T22:25:14.548Z,11.81
2018-10-16T22:26:15.888Z,11.82
2018-10-16T22:27:17.315Z,11.79
2018-10-16T22:28:18.696Z,11.78
2018-10-16T22:29:20.092Z,11.77
2018-10-16T22:30:21.520Z,11.77
2018-10-16T22:31:22.892Z,11.79
2018-10-16T22:32:24.271Z,11.84
2018-10-16T22:33:25.689Z,11.81
2018-10-16T22:34:27.078Z,11.85
2018-10-16T22:35:28.464Z,11.70
2018-10-16T22:36:29.834Z,11.77
2018-10-16T22:37:31.222Z,11.75
2018-10-16T22:38:32.602Z,11.67
2018-10-16T22:39:33.980Z,11.66
2018-10-16T22:40:35.363Z,11.66
2018-10-16T22:41:36.747Z,11.69
2018-10-16T22:42:38.074Z,11.67
2018-10-16T22:43:39.453Z,11.62
2018-10-16T22:44:40.881Z,11.69
2018-10-16T22:45:42.217Z,11.64
2018-10-16T22:46:43.595Z,11.70
2018-10-16T22:47:44.966Z,11.66
2018-10-16T22:48:46.354Z,11.63
2018-10-16T22:49:47.729Z,11.60
2018-10-16T22:50:49.115Z,11.66
2018-10-16T22:51:50.495Z,11.72
2018-10-16T22:52:51.890Z,11.63
2018-10-16T22:53:53.268Z,11.53
2018-10-16T22:54:54.687Z,11.59
2018-10-16T22:55:56.026Z,11.62
2018-10-16T22:56:57.404Z,11.57
2018-10-16T22:57:58.779Z,11.59
2018-10-16T22:59:00.178Z,11.60
2018-10-16T23:00:01.553Z,11.53
2018-10-16T23:01:02.997Z,11.60
2018-10-16T23:02:04.270Z,11.59
2018-10-16T23:03:05.654Z,11.48
2018-10-16T23:04:07.038Z,11.53
2018-10-16T23:05:08.478Z,11.48
2018-10-16T23:06:09.799Z,11.56
2018-10-16T23:07:11.238Z,11.53
2018-10-16T23:08:12.561Z,11.53
2018-10-16T23:09:13.943Z,11.49
2018-10-16T23:10:15.316Z,11.44
2018-10-16T23:11:16.923Z,11.36
2018-10-16T23:12:18.086Z,11.39
2018-10-16T23:13:19.471Z,11.39
2018-10-16T23:14:20.854Z,11.41
2018-10-16T23:15:22.231Z,11.38
2018-10-16T23:16:23.605Z,11.41
2018-10-16T23:17:24.989Z,11.41
2018-10-16T23:18:26.358Z,11.30
2018-10-16T23:19:27.745Z,11.30
2018-10-16T23:20:29.210Z,11.31
2018-10-16T23:21:30.462Z,11.31
2018-10-16T23:22:31.845Z,11.35
2018-10-16T23:23:33.222Z,11.23
2018-10-16T23:24:34.605Z,11.16
2018-10-16T23:25:35.983Z,11.24
2018-10-16T23:26:37.368Z,11.13
2018-10-16T23:27:38.748Z,11.08
2018-10-16T23:28:40.128Z,11.01
2018-10-16T23:29:41.504Z,10.98
2018-10-16T23:30:42.892Z,10.99
2018-10-16T23:31:44.276Z,11.01
2018-10-16T23:32:45.653Z,11.01
2018-10-16T23:33:47.035Z,10.99
2018-10-16T23:34:48.417Z,10.95
2018-10-16T23:35:49.799Z,10.93
2018-10-16T23:36:51.211Z,10.91
2018-10-16T23:37:52.537Z,10.83
2018-10-16T23:38:53.928Z,10.86
2018-10-16T23:39:55.307Z,10.93
2018-10-16T23:40:56.709Z,10.87
2018-10-16T23:41:58.077Z,10.88
2018-10-16T23:42:59.477Z,10.84
2018-10-16T23:44:00.836Z,10.84
2018-10-16T23:45:02.215Z,10.81
2018-10-16T23:46:03.591Z,10.83
2018-10-16T23:47:04.991Z,10.78
2018-10-16T23:48:06.349Z,10.75
2018-10-16T23:49:07.798Z,10.72
2018-10-16T23:50:09.062Z,10.69
2018-10-16T23:51:10.452Z,10.68
2018-10-16T23:52:11.832Z,10.70
2018-10-16T23:53:13.278Z,10.72
2018-10-16T23:54:14.596Z,10.68
2018-10-16T23:55:15.990Z,10.69
2018-10-16T23:56:17.363Z,10.70
2018-10-16T23:57:18.744Z,10.65
2018-10-16T23:58:20.118Z,10.69
2018-10-16T23:59:21.498Z,10.62
